createdAt,value
2022-08-25T00:02:06.731Z,2.20
2022-08-25T00:04:35.356Z,1.85
2022-08-25T00:07:05.084Z,2.40
2022-08-25T00:09:34.806Z,2.20
2022-08-25T00:12:05.688Z,2.05
2022-08-25T00:14:35.719Z,1.90
2022-08-25T00:19:34.225Z,2.15
2022-08-25T00:22:01.835Z,2.30
2022-08-25T00:29:27.919Z,2.30
2022-08-25T00:31:56.291Z,2.25
2022-08-25T00:39:21.862Z,2.30
2022-08-25T00:44:20.266Z,2.10
2022-08-25T00:46:49.475Z,2.10
2022-08-25T00:49:29.868Z,2.10
2022-08-25T00:57:04.480Z,1.90
2022-08-25T01:01:58.843Z,1.65
2022-08-25T01:06:55.576Z,2.00
2022-08-25T01:14:18.809Z,2.10
2022-08-25T01:16:45.340Z,1.90
2022-08-25T01:19:15.541Z,2.10
2022-08-25T01:21:46.905Z,2.20
2022-08-25T01:24:23.701Z,2.00
2022-08-25T01:31:51.010Z,2.00
2022-08-25T01:34:19.302Z,2.60
2022-08-25T01:41:51.317Z,2.05
2022-08-25T01:49:11.684Z,1.90
2022-08-25T02:31:10.268Z,2.50
2022-08-25T02:33:37.291Z,2.45
2022-08-25T02:40:58.673Z,2.50
2022-08-25T02:45:53.839Z,2.20
2022-08-25T02:53:20.769Z,2.30
2022-08-25T02:58:15.210Z,2.35
2022-08-25T03:00:42.109Z,2.40
2022-08-25T03:03:09.915Z,2.50
2022-08-25T03:05:36.351Z,2.30
2022-08-25T03:08:04.310Z,2.00
2022-08-25T03:10:31.075Z,2.65
2022-08-25T03:12:57.781Z,2.40
2022-08-25T03:15:27.591Z,2.40
2022-08-25T03:17:57.686Z,2.40
2022-08-25T03:20:27.973Z,2.80
2022-08-25T03:22:54.440Z,2.35
2022-08-25T03:25:39.766Z,2.87
2022-08-25T03:28:07.544Z,2.40
2022-08-25T03:30:34.698Z,2.55
2022-08-25T03:37:58.946Z,2.50
2022-08-25T03:40:26.245Z,2.40
2022-08-25T03:42:54.954Z,2.30
2022-08-25T03:45:21.450Z,3.20
2022-08-25T03:47:49.631Z,2.73
2022-08-25T03:50:18.324Z,2.60
2022-08-25T03:52:45.488Z,2.80
2022-08-25T03:55:13.745Z,2.95
2022-08-25T03:57:40.574Z,2.60
2022-08-25T04:00:09.636Z,2.40
2022-08-25T04:02:36.139Z,2.80
2022-08-25T04:05:02.594Z,2.60
2022-08-25T04:07:29.337Z,2.70
2022-08-25T04:09:56.202Z,2.40
2022-08-25T04:12:23.170Z,2.20
2022-08-25T04:14:49.850Z,2.70
2022-08-25T04:19:42.793Z,2.45
2022-08-25T04:27:01.991Z,2.50
2022-08-25T04:29:28.394Z,3.10
2022-08-25T05:16:19.035Z,2.70
2022-08-25T09:23:01.116Z,2.20
2022-08-25T09:28:41.749Z,2.10
2022-08-25T09:56:26.454Z,2.60
2022-08-25T10:06:23.595Z,2.00
2022-08-25T10:11:43.534Z,1.90
2022-08-25T10:14:44.305Z,1.90
2022-08-25T10:20:09.695Z,2.00
2022-08-25T10:22:37.424Z,2.00
2022-08-25T10:25:07.237Z,2.20
2022-08-25T10:27:52.557Z,1.80
2022-08-25T10:30:28.686Z,1.75
2022-08-25T10:33:13.037Z,1.60
2022-08-25T10:35:58.287Z,1.90
2022-08-25T10:38:45.194Z,1.80
2022-08-25T10:41:20.994Z,1.70
2022-08-25T10:43:53.553Z,1.60
2022-08-25T10:49:19.674Z,1.60
2022-08-25T10:51:55.493Z,1.40
2022-08-25T10:54:53.225Z,1.30
2022-08-25T10:58:38.408Z,1.90
2022-08-25T11:01:19.004Z,1.85
2022-08-25T11:04:15.496Z,2.10
2022-08-25T11:06:53.081Z,1.80
2022-08-25T11:09:25.605Z,1.80
2022-08-25T11:14:39.989Z,1.80
2022-08-25T11:17:18.137Z,1.70
2022-08-25T11:22:14.389Z,1.70
2022-08-25T11:25:15.251Z,1.70
2022-08-25T11:27:58.055Z,1.80
2022-08-25T11:30:25.824Z,1.70
2022-08-25T11:32:54.692Z,1.70
2022-08-25T11:35:33.161Z,1.50
2022-08-25T11:38:00.332Z,1.60
2022-08-25T11:40:41.657Z,1.60
2022-08-25T11:43:43.498Z,1.80
2022-08-25T11:46:09.886Z,1.30
2022-08-25T11:49:11.787Z,1.40
2022-08-25T11:51:45.011Z,1.60
2022-08-25T11:54:34.512Z,2.30
2022-08-25T11:57:08.175Z,1.65
2022-08-25T11:59:49.706Z,1.50
2022-08-25T12:02:35.490Z,1.73
2022-08-25T12:05:12.725Z,1.77
2022-08-25T12:07:48.467Z,1.70
2022-08-25T12:10:16.380Z,1.95
2022-08-25T12:12:42.718Z,1.52
2022-08-25T12:15:31.228Z,1.70
2022-08-25T12:18:16.237Z,1.80
2022-08-25T12:21:30.657Z,1.97
2022-08-25T12:24:03.545Z,1.92
2022-08-25T12:26:52.547Z,1.60
2022-08-25T12:29:39.087Z,1.50
2022-08-25T12:32:14.614Z,1.45
2022-08-25T12:35:20.549Z,1.20
2022-08-25T12:38:01.053Z,1.20
2022-08-25T12:40:34.987Z,1.37
2022-08-25T12:43:26.525Z,1.30
2022-08-25T12:46:14.683Z,1.30
2022-08-25T12:48:55.996Z,1.20
2022-08-25T12:51:28.726Z,1.40
2022-08-25T12:54:22.749Z,0.90
2022-08-25T12:56:59.259Z,1.27
2022-08-25T12:59:44.744Z,1.40
2022-08-25T13:02:24.453Z,1.20
2022-08-25T13:05:17.145Z,1.60
2022-08-25T13:08:33.600Z,1.15
2022-08-25T13:11:04.642Z,1.50
2022-08-25T13:13:52.699Z,1.20
2022-08-25T13:16:29.353Z,1.30
2022-08-25T13:18:59.219Z,1.00
2022-08-25T13:21:41.525Z,1.40
2022-08-25T13:24:22.314Z,1.45
2022-08-25T13:26:53.961Z,1.40
2022-08-25T13:29:36.934Z,1.10
2022-08-25T13:32:12.778Z,1.30
2022-08-25T13:34:42.753Z,1.42
2022-08-25T13:37:29.728Z,1.40
2022-08-25T13:40:12.336Z,1.42
2022-08-25T13:42:42.831Z,1.58
2022-08-25T13:52:54.200Z,1.60
2022-08-25T13:55:57.014Z,1.38
2022-08-25T13:58:39.006Z,1.50
2022-08-25T14:01:47.516Z,1.50
2022-08-25T14:09:26.632Z,1.92
2022-08-25T14:11:58.488Z,1.80
2022-08-25T14:14:24.833Z,1.73
2022-08-25T14:16:58.737Z,1.70
2022-08-25T14:19:26.200Z,1.70
2022-08-25T14:21:56.584Z,1.80
2022-08-25T14:24:23.857Z,1.88
2022-08-25T14:26:54.356Z,1.90
2022-08-25T14:29:22.089Z,2.10
2022-08-25T14:31:50.733Z,2.22
2022-08-25T14:34:28.601Z,2.33
2022-08-25T14:36:56.489Z,2.45
2022-08-25T14:39:22.995Z,2.13
2022-08-25T14:41:52.687Z,2.53
2022-08-25T14:44:20.334Z,2.30
2022-08-25T14:46:52.214Z,2.10
2022-08-25T14:49:24.826Z,2.30
2022-08-25T14:51:51.875Z,2.00
2022-08-25T14:54:24.207Z,2.00
2022-08-25T14:56:56.506Z,1.90
2022-08-25T14:59:23.163Z,1.90
2022-08-25T15:01:55.790Z,1.80
2022-08-25T15:04:29.265Z,1.90
2022-08-25T15:06:59.479Z,2.00
2022-08-25T15:09:26.440Z,1.88
2022-08-25T15:12:00.006Z,2.05
2022-08-25T15:14:28.575Z,1.70
2022-08-25T15:16:59.793Z,2.08
2022-08-25T15:19:27.190Z,2.30
2022-08-25T15:21:57.924Z,2.10
2022-08-25T15:24:27.453Z,2.28
2022-08-25T15:26:56.685Z,2.13
2022-08-25T15:29:26.164Z,2.20
2022-08-25T15:31:53.172Z,2.00
2022-08-25T15:34:19.704Z,2.20
2022-08-25T15:36:46.647Z,2.10
2022-08-25T15:39:14.409Z,2.15
2022-08-25T15:41:42.703Z,2.20
2022-08-25T15:44:24.130Z,2.40
2022-08-25T15:47:12.688Z,2.23
2022-08-25T15:49:43.167Z,2.10
2022-08-25T15:52:10.142Z,2.10
2022-08-25T15:54:36.562Z,1.83
2022-08-25T15:57:08.899Z,1.80
2022-08-25T15:59:40.971Z,1.88
2022-08-25T16:02:17.634Z,1.88
2022-08-25T16:04:44.098Z,2.10
2022-08-25T16:07:13.229Z,2.20
2022-08-25T16:09:41.216Z,1.97
2022-08-25T16:12:08.577Z,1.75
2022-08-25T16:26:50.024Z,1.60
2022-08-25T16:29:19.045Z,1.30
2022-08-25T16:31:53.073Z,1.60
2022-08-25T16:34:20.283Z,1.40
2022-08-25T16:36:47.003Z,1.52
2022-08-25T16:39:15.841Z,1.43
2022-08-25T16:41:45.427Z,1.60
2022-08-25T16:44:12.959Z,1.30
2022-08-25T16:46:40.777Z,1.20
2022-08-25T16:49:08.923Z,1.40
2022-08-25T16:51:37.568Z,1.45
2022-08-25T16:54:26.314Z,1.35
2022-08-25T16:56:55.586Z,1.40
2022-08-25T16:59:27.018Z,1.37
2022-08-25T17:01:54.050Z,1.08
2022-08-25T17:04:21.497Z,1.40
2022-08-25T17:06:58.534Z,1.40
2022-08-25T17:09:25.190Z,1.25
2022-08-25T17:11:54.254Z,1.40
2022-08-25T17:14:21.549Z,1.50
2022-08-25T17:16:48.551Z,1.50
2022-08-25T17:19:18.975Z,1.08
2022-08-25T17:21:46.811Z,1.50
2022-08-25T17:24:15.130Z,1.20
2022-08-25T17:26:46.380Z,1.30
2022-08-25T17:29:12.801Z,1.35
2022-08-25T17:31:40.008Z,1.20
2022-08-25T17:34:13.081Z,1.35
2022-08-25T17:36:43.927Z,1.10
2022-08-25T17:39:15.114Z,1.33
2022-08-25T17:41:44.153Z,1.30
2022-08-25T17:44:12.055Z,1.58
2022-08-25T17:46:47.059Z,1.50
2022-08-25T17:49:15.728Z,1.20
2022-08-25T17:51:42.834Z,1.33
2022-08-25T17:54:09.520Z,1.80
2022-08-25T17:56:37.628Z,1.60
2022-08-25T17:59:04.143Z,1.50
2022-08-25T22:23:41.845Z,12.80
2022-08-25T22:45:45.816Z,18.30
2022-08-25T23:58:17.987Z,17.80
